sensor_id;sensor_type;location;lat;lon;timestamp;temperature;humidity
5459;DHT22;2752;49.992;8.422;2022-09-16T00:00:08;15.70;1.00
5459;DHT22;2752;49.992;8.422;2022-09-16T00:02:35;15.90;1.00
5459;DHT22;2752;49.992;8.422;2022-09-16T00:05:02;16.20;1.00
5459;DHT22;2752;49.992;8.422;2022-09-16T00:07:30;15.90;1.00
5459;DHT22;2752;49.992;8.422;2022-09-16T00:09:56;15.70;1.00
5459;DHT22;2752;49.992;8.422;2022-09-16T00:12:24;15.70;1.00
5459;DHT22;2752;49.992;8.422;2022-09-16T00:14:51;16.30;1.00
5459;DHT22;2752;49.992;8.422;2022-09-16T00:17:18;15.80;1.00
5459;DHT22;2752;49.992;8.422;2022-09-16T00:19:45;15.70;1.00
5459;DHT22;2752;49.992;8.422;2022-09-16T00:22:12;15.80;1.00
5459;DHT22;2752;49.992;8.422;2022-09-16T00:24:38;15.80;1.00
5459;DHT22;2752;49.992;8.422;2022-09-16T00:27:05;15.70;1.00
5459;DHT22;2752;49.992;8.422;2022-09-16T00:29:33;15.50;1.00
5459;DHT22;2752;49.992;8.422;2022-09-16T00:32:00;15.50;1.00
5459;DHT22;2752;49.992;8.422;2022-09-16T00:34:27;15.70;1.00
5459;DHT22;2752;49.992;8.422;2022-09-16T00:36:53;15.60;1.00
5459;DHT22;2752;49.992;8.422;2022-09-16T00:39:20;15.50;1.00
5459;DHT22;2752;49.992;8.422;2022-09-16T00:41:47;15.60;1.00
5459;DHT22;2752;49.992;8.422;2022-09-16T00:44:52;15.50;1.00
5459;DHT22;2752;49.992;8.422;2022-09-16T00:47:22;15.70;1.00
5459;DHT22;2752;49.992;8.422;2022-09-16T00:49:50;15.70;1.00
5459;DHT22;2752;49.992;8.422;2022-09-16T00:52:17;15.50;1.00
5459;DHT22;2752;49.992;8.422;2022-09-16T00:54:45;15.50;1.00
5459;DHT22;2752;49.992;8.422;2022-09-16T00:57:13;15.50;1.00
5459;DHT22;2752;49.992;8.422;2022-09-16T00:59:42;15.50;1.00
5459;DHT22;2752;49.992;8.422;2022-09-16T01:02:15;15.50;1.00
5459;DHT22;2752;49.992;8.422;2022-09-16T01:04:45;15.60;1.00
5459;DHT22;2752;49.992;8.422;2022-09-16T01:07:12;15.50;1.00
5459;DHT22;2752;49.992;8.422;2022-09-16T01:12:06;15.40;1.00
5459;DHT22;2752;49.992;8.422;2022-09-16T01:14:33;15.40;1.00
5459;DHT22;2752;49.992;8.422;2022-09-16T01:23:27;15.30;1.00
5459;DHT22;2752;49.992;8.422;2022-09-16T01:26:13;15.30;1.00
5459;DHT22;2752;49.992;8.422;2022-09-16T01:31:46;15.20;1.00
5459;DHT22;2752;49.992;8.422;2022-09-16T01:34:23;15.20;1.00
5459;DHT22;2752;49.992;8.422;2022-09-16T01:36:57;15.20;1.00
5459;DHT22;2752;49.992;8.422;2022-09-16T01:39:33;15.20;1.00
5459;DHT22;2752;49.992;8.422;2022-09-16T01:42:15;15.70;1.00
5459;DHT22;2752;49.992;8.422;2022-09-16T01:44:52;15.40;1.00
5459;DHT22;2752;49.992;8.422;2022-09-16T01:47:25;15.20;1.00
5459;DHT22;2752;49.992;8.422;2022-09-16T01:49:59;15.10;1.00
5459;DHT22;2752;49.992;8.422;2022-09-16T01:52:35;15.20;1.00
5459;DHT22;2752;49.992;8.422;2022-09-16T01:55:06;15.10;1.00
5459;DHT22;2752;49.992;8.422;2022-09-16T01:57:38;15.20;1.00
5459;DHT22;2752;49.992;8.422;2022-09-16T02:00:08;15.40;1.00
5459;DHT22;2752;49.992;8.422;2022-09-16T02:02:40;15.30;1.00
5459;DHT22;2752;49.992;8.422;2022-09-16T02:05:11;15.30;1.00
5459;DHT22;2752;49.992;8.422;2022-09-16T02:07:44;15.20;1.00
5459;DHT22;2752;49.992;8.422;2022-09-16T02:10:17;15.30;1.00
5459;DHT22;2752;49.992;8.422;2022-09-16T02:12:46;15.30;1.00
5459;DHT22;2752;49.992;8.422;2022-09-16T02:15:17;15.60;1.00
5459;DHT22;2752;49.992;8.422;2022-09-16T02:17:50;15.30;1.00
5459;DHT22;2752;49.992;8.422;2022-09-16T02:20:20;15.40;1.00
5459;DHT22;2752;49.992;8.422;2022-09-16T02:22:51;15.10;1.00
5459;DHT22;2752;49.992;8.422;2022-09-16T02:25:20;15.30;1.00
5459;DHT22;2752;49.992;8.422;2022-09-16T02:27:48;15.40;1.00
5459;DHT22;2752;49.992;8.422;2022-09-16T02:30:18;15.10;1.00
5459;DHT22;2752;49.992;8.422;2022-09-16T02:32:49;15.30;1.00
5459;DHT22;2752;49.992;8.422;2022-09-16T02:35:19;15.10;1.00
5459;DHT22;2752;49.992;8.422;2022-09-16T02:37:50;15.10;1.00
5459;DHT22;2752;49.992;8.422;2022-09-16T02:40:23;15.10;1.00
5459;DHT22;2752;49.992;8.422;2022-09-16T02:42:51;15.90;1.00
5459;DHT22;2752;49.992;8.422;2022-09-16T02:45:19;15.00;1.00
5459;DHT22;2752;49.992;8.422;2022-09-16T02:47:56;15.00;1.00
5459;DHT22;2752;49.992;8.422;2022-09-16T02:50:28;15.00;1.00
5459;DHT22;2752;49.992;8.422;2022-09-16T02:53:01;15.10;1.00
5459;DHT22;2752;49.992;8.422;2022-09-16T02:55:33;14.90;1.00
5459;DHT22;2752;49.992;8.422;2022-09-16T02:58:02;15.00;1.00
5459;DHT22;2752;49.992;8.422;2022-09-16T03:00:29;15.00;1.00
5459;DHT22;2752;49.992;8.422;2022-09-16T03:02:58;14.90;1.00
5459;DHT22;2752;49.992;8.422;2022-09-16T03:05:26;15.30;1.00
5459;DHT22;2752;49.992;8.422;2022-09-16T03:07:53;15.20;1.00
5459;DHT22;2752;49.992;8.422;2022-09-16T03:10:21;15.00;1.00
5459;DHT22;2752;49.992;8.422;2022-09-16T03:12:55;14.90;1.00
5459;DHT22;2752;49.992;8.422;2022-09-16T03:18:36;15.20;1.00
5459;DHT22;2752;49.992;8.422;2022-09-16T03:21:15;14.90;1.00
5459;DHT22;2752;49.992;8.422;2022-09-16T03:23:46;14.90;1.00
5459;DHT22;2752;49.992;8.422;2022-09-16T03:26:21;14.90;1.00
5459;DHT22;2752;49.992;8.422;2022-09-16T03:28:57;14.90;1.00
5459;DHT22;2752;49.992;8.422;2022-09-16T03:31:31;14.80;1.00
5459;DHT22;2752;49.992;8.422;2022-09-16T03:34:05;15.00;1.00
5459;DHT22;2752;49.992;8.422;2022-09-16T03:36:38;15.00;1.00
5459;DHT22;2752;49.992;8.422;2022-09-16T03:39:06;14.80;1.00
5459;DHT22;2752;49.992;8.422;2022-09-16T03:41:33;14.80;1.00
5459;DHT22;2752;49.992;8.422;2022-09-16T03:44:01;14.90;1.00
5459;DHT22;2752;49.992;8.422;2022-09-16T03:46:28;15.20;1.00
5459;DHT22;2752;49.992;8.422;2022-09-16T03:48:55;15.00;1.00
5459;DHT22;2752;49.992;8.422;2022-09-16T03:51:24;14.90;1.00
5459;DHT22;2752;49.992;8.422;2022-09-16T03:53:51;15.00;1.00
5459;DHT22;2752;49.992;8.422;2022-09-16T03:56:18;15.00;1.00
5459;DHT22;2752;49.992;8.422;2022-09-16T03:58:46;14.70;1.00
5459;DHT22;2752;49.992;8.422;2022-09-16T04:01:13;15.00;1.00
5459;DHT22;2752;49.992;8.422;2022-09-16T04:03:40;14.90;1.00
5459;DHT22;2752;49.992;8.422;2022-09-16T04:06:07;14.90;1.00
5459;DHT22;2752;49.992;8.422;2022-09-16T04:08:35;15.20;1.00
5459;DHT22;2752;49.992;8.422;2022-09-16T04:11:05;15.00;1.00
5459;DHT22;2752;49.992;8.422;2022-09-16T04:13:32;15.20;1.00
5459;DHT22;2752;49.992;8.422;2022-09-16T04:16:00;15.10;1.00
5459;DHT22;2752;49.992;8.422;2022-09-16T04:18:29;15.10;1.00
5459;DHT22;2752;49.992;8.422;2022-09-16T04:20:56;14.80;1.00
5459;DHT22;2752;49.992;8.422;2022-09-16T04:23:23;15.00;1.00
5459;DHT22;2752;49.992;8.422;2022-09-16T04:25:54;15.00;1.00
5459;DHT22;2752;49.992;8.422;2022-09-16T04:28:21;14.90;1.00
5459;DHT22;2752;49.992;8.422;2022-09-16T04:30:47;15.00;1.00
5459;DHT22;2752;49.992;8.422;2022-09-16T04:33:14;15.10;1.00
5459;DHT22;2752;49.992;8.422;2022-09-16T04:35:41;14.90;1.00
5459;DHT22;2752;49.992;8.422;2022-09-16T04:38:07;14.90;1.00
5459;DHT22;2752;49.992;8.422;2022-09-16T04:40:34;15.00;1.00
5459;DHT22;2752;49.992;8.422;2022-09-16T04:43:03;15.40;1.00
5459;DHT22;2752;49.992;8.422;2022-09-16T04:45:30;14.80;1.00
5459;DHT22;2752;49.992;8.422;2022-09-16T04:47:56;14.80;1.00
5459;DHT22;2752;49.992;8.422;2022-09-16T04:50:23;14.90;1.00
5459;DHT22;2752;49.992;8.422;2022-09-16T04:52:50;14.80;5.90
5459;DHT22;2752;49.992;8.422;2022-09-16T04:55:17;14.80;1.00
5459;DHT22;2752;49.992;8.422;2022-09-16T04:57:47;15.10;10.50
5459;DHT22;2752;49.992;8.422;2022-09-16T05:00:16;15.20;1.00
5459;DHT22;2752;49.992;8.422;2022-09-16T05:02:43;14.90;1.00
5459;DHT22;2752;49.992;8.422;2022-09-16T05:05:10;15.00;12.50
5459;DHT22;2752;49.992;8.422;2022-09-16T05:07:36;14.90;1.00
5459;DHT22;2752;49.992;8.422;2022-09-16T05:10:04;14.70;1.00
5459;DHT22;2752;49.992;8.422;2022-09-16T05:12:30;14.90;1.00
5459;DHT22;2752;49.992;8.422;2022-09-16T05:14:57;14.80;1.00
5459;DHT22;2752;49.992;8.422;2022-09-16T05:17:25;14.80;1.00
5459;DHT22;2752;49.992;8.422;2022-09-16T05:19:54;14.70;1.00
5459;DHT22;2752;49.992;8.422;2022-09-16T05:22:21;14.80;1.00
5459;DHT22;2752;49.992;8.422;2022-09-16T05:24:47;14.80;1.00
5459;DHT22;2752;49.992;8.422;2022-09-16T05:27:14;14.70;1.00
5459;DHT22;2752;49.992;8.422;2022-09-16T05:29:41;14.80;1.00
5459;DHT22;2752;49.992;8.422;2022-09-16T05:32:08;14.70;1.00
5459;DHT22;2752;49.992;8.422;2022-09-16T05:34:36;14.70;1.00
5459;DHT22;2752;49.992;8.422;2022-09-16T05:37:02;15.00;1.00
5459;DHT22;2752;49.992;8.422;2022-09-16T05:39:29;15.00;1.00
5459;DHT22;2752;49.992;8.422;2022-09-16T05:41:58;14.80;1.00
5459;DHT22;2752;49.992;8.422;2022-09-16T05:44:26;14.90;1.00
5459;DHT22;2752;49.992;8.422;2022-09-16T05:46:53;14.80;1.00
5459;DHT22;2752;49.992;8.422;2022-09-16T05:49:20;14.80;1.00
5459;DHT22;2752;49.992;8.422;2022-09-16T05:51:49;15.10;4.50
5459;DHT22;2752;49.992;8.422;2022-09-16T05:54:17;15.10;1.00
5459;DHT22;2752;49.992;8.422;2022-09-16T05:56:44;14.90;1.00
5459;DHT22;2752;49.992;8.422;2022-09-16T05:59:12;15.20;10.30
5459;DHT22;2752;49.992;8.422;2022-09-16T06:01:39;14.90;1.00
5459;DHT22;2752;49.992;8.422;2022-09-16T06:04:08;15.00;1.00
5459;DHT22;2752;49.992;8.422;2022-09-16T06:06:36;15.00;1.00
5459;DHT22;2752;49.992;8.422;2022-09-16T06:09:06;15.70;1.00
5459;DHT22;2752;49.992;8.422;2022-09-16T06:11:36;15.10;1.00
5459;DHT22;2752;49.992;8.422;2022-09-16T06:14:03;15.10;1.00
5459;DHT22;2752;49.992;8.422;2022-09-16T06:16:31;15.00;1.00
5459;DHT22;2752;49.992;8.422;2022-09-16T06:18:59;15.40;2.20
5459;DHT22;2752;49.992;8.422;2022-09-16T06:21:26;15.10;7.70
5459;DHT22;2752;49.992;8.422;2022-09-16T06:23:54;15.50;1.00
5459;DHT22;2752;49.992;8.422;2022-09-16T06:26:23;15.20;1.00
5459;DHT22;2752;49.992;8.422;2022-09-16T06:28:51;15.30;1.00
5459;DHT22;2752;49.992;8.422;2022-09-16T06:31:19;15.50;1.00
5459;DHT22;2752;49.992;8.422;2022-09-16T06:33:46;15.40;4.20
5459;DHT22;2752;49.992;8.422;2022-09-16T06:36:16;15.20;1.00
5459;DHT22;2752;49.992;8.422;2022-09-16T06:38:43;15.20;1.00
5459;DHT22;2752;49.992;8.422;2022-09-16T06:41:11;15.30;1.00
5459;DHT22;2752;49.992;8.422;2022-09-16T06:43:40;15.30;1.00
5459;DHT22;2752;49.992;8.422;2022-09-16T06:46:08;15.30;1.00
5459;DHT22;2752;49.992;8.422;2022-09-16T06:48:39;15.70;1.00
5459;DHT22;2752;49.992;8.422;2022-09-16T06:51:09;15.30;1.00
5459;DHT22;2752;49.992;8.422;2022-09-16T06:53:36;15.50;1.00
5459;DHT22;2752;49.992;8.422;2022-09-16T06:56:06;15.50;1.00
5459;DHT22;2752;49.992;8.422;2022-09-16T06:58:34;15.50;1.00
5459;DHT22;2752;49.992;8.422;2022-09-16T07:01:05;15.30;1.00
5459;DHT22;2752;49.992;8.422;2022-09-16T07:03:32;15.40;1.00
5459;DHT22;2752;49.992;8.422;2022-09-16T07:06:00;15.50;1.00
5459;DHT22;2752;49.992;8.422;2022-09-16T07:08:27;15.80;1.00
5459;DHT22;2752;49.992;8.422;2022-09-16T07:10:55;15.60;1.00
5459;DHT22;2752;49.992;8.422;2022-09-16T07:13:22;15.40;1.00
5459;DHT22;2752;49.992;8.422;2022-09-16T07:15:48;15.60;1.00
5459;DHT22;2752;49.992;8.422;2022-09-16T07:18:16;16.50;1.00
5459;DHT22;2752;49.992;8.422;2022-09-16T07:20:43;15.40;1.00
5459;DHT22;2752;49.992;8.422;2022-09-16T07:23:10;15.30;1.00
5459;DHT22;2752;49.992;8.422;2022-09-16T07:25:36;15.40;1.00
5459;DHT22;2752;49.992;8.422;2022-09-16T07:28:03;15.30;1.00
5459;DHT22;2752;49.992;8.422;2022-09-16T07:30:30;15.30;1.00
5459;DHT22;2752;49.992;8.422;2022-09-16T07:32:58;15.30;1.00
5459;DHT22;2752;49.992;8.422;2022-09-16T07:35:26;15.20;1.00
5459;DHT22;2752;49.992;8.422;2022-09-16T07:37:53;15.30;1.00
5459;DHT22;2752;49.992;8.422;2022-09-16T07:40:19;15.30;1.00
5459;DHT22;2752;49.992;8.422;2022-09-16T07:42:46;15.50;1.00
5459;DHT22;2752;49.992;8.422;2022-09-16T07:45:13;15.70;1.00
5459;DHT22;2752;49.992;8.422;2022-09-16T07:47:40;15.50;1.00
5459;DHT22;2752;49.992;8.422;2022-09-16T07:50:07;15.70;1.00
5459;DHT22;2752;49.992;8.422;2022-09-16T07:52:35;16.00;1.00
5459;DHT22;2752;49.992;8.422;2022-09-16T07:55:02;15.80;1.00
5459;DHT22;2752;49.992;8.422;2022-09-16T07:57:29;16.10;1.00
5459;DHT22;2752;49.992;8.422;2022-09-16T07:59:55;16.40;1.00
5459;DHT22;2752;49.992;8.422;2022-09-16T08:02:22;16.60;1.00
5459;DHT22;2752;49.992;8.422;2022-09-16T08:04:48;16.30;1.00
5459;DHT22;2752;49.992;8.422;2022-09-16T08:07:15;16.40;1.00
5459;DHT22;2752;49.992;8.422;2022-09-16T08:09:44;16.40;1.00
5459;DHT22;2752;49.992;8.422;2022-09-16T08:12:10;16.60;1.00
5459;DHT22;2752;49.992;8.422;2022-09-16T08:14:39;16.80;1.00
5459;DHT22;2752;49.992;8.422;2022-09-16T08:17:05;17.10;1.00
5459;DHT22;2752;49.992;8.422;2022-09-16T08:19:32;17.00;1.00
5459;DHT22;2752;49.992;8.422;2022-09-16T08:21:59;16.70;1.00
5459;DHT22;2752;49.992;8.422;2022-09-16T08:24:26;16.70;1.00
5459;DHT22;2752;49.992;8.422;2022-09-16T08:26:54;16.90;1.00
5459;DHT22;2752;49.992;8.422;2022-09-16T08:29:20;16.70;1.00
5459;DHT22;2752;49.992;8.422;2022-09-16T08:31:50;16.90;1.00
5459;DHT22;2752;49.992;8.422;2022-09-16T08:34:16;16.70;1.00
5459;DHT22;2752;49.992;8.422;2022-09-16T08:36:44;16.80;1.00
5459;DHT22;2752;49.992;8.422;2022-09-16T08:39:10;16.60;1.00
5459;DHT22;2752;49.992;8.422;2022-09-16T08:41:48;16.60;1.00
5459;DHT22;2752;49.992;8.422;2022-09-16T08:44:25;17.10;1.00
5459;DHT22;2752;49.992;8.422;2022-09-16T08:46:55;16.90;1.00
5459;DHT22;2752;49.992;8.422;2022-09-16T08:49:29;16.90;1.00
5459;DHT22;2752;49.992;8.422;2022-09-16T08:51:58;17.30;1.00
5459;DHT22;2752;49.992;8.422;2022-09-16T08:54:29;17.00;1.00
5459;DHT22;2752;49.992;8.422;2022-09-16T08:56:59;16.70;1.00
5459;DHT22;2752;49.992;8.422;2022-09-16T08:59:31;17.00;1.00
5459;DHT22;2752;49.992;8.422;2022-09-16T09:02:15;17.40;1.00
5459;DHT22;2752;49.992;8.422;2022-09-16T09:04:44;17.70;1.00
5459;DHT22;2752;49.992;8.422;2022-09-16T09:07:16;17.60;1.00
5459;DHT22;2752;49.992;8.422;2022-09-16T09:09:57;18.40;1.00
5459;DHT22;2752;49.992;8.422;2022-09-16T09:12:33;18.20;1.00
5459;DHT22;2752;49.992;8.422;2022-09-16T09:18:03;17.90;1.00
5459;DHT22;2752;49.992;8.422;2022-09-16T09:20:44;17.30;1.00
5459;DHT22;2752;49.992;8.422;2022-09-16T09:23:35;17.20;1.00
5459;DHT22;2752;49.992;8.422;2022-09-16T09:26:10;17.40;1.00
5459;DHT22;2752;49.992;8.422;2022-09-16T09:28:57;17.60;1.00
5459;DHT22;2752;49.992;8.422;2022-09-16T09:31:36;17.80;1.00
5459;DHT22;2752;49.992;8.422;2022-09-16T09:34:15;18.10;1.00
5459;DHT22;2752;49.992;8.422;2022-09-16T09:36:57;18.30;1.00
5459;DHT22;2752;49.992;8.422;2022-09-16T09:39:42;17.90;1.00
5459;DHT22;2752;49.992;8.422;2022-09-16T09:42:15;17.80;1.00
5459;DHT22;2752;49.992;8.422;2022-09-16T09:44:49;18.40;1.00
5459;DHT22;2752;49.992;8.422;2022-09-16T09:47:22;17.80;1.00
5459;DHT22;2752;49.992;8.422;2022-09-16T09:49:54;17.70;1.00
5459;DHT22;2752;49.992;8.422;2022-09-16T09:52:26;17.60;1.00
5459;DHT22;2752;49.992;8.422;2022-09-16T09:54:54;17.70;1.00
5459;DHT22;2752;49.992;8.422;2022-09-16T09:57:27;18.30;1.00
5459;DHT22;2752;49.992;8.422;2022-09-16T10:00:02;18.00;1.00
5459;DHT22;2752;49.992;8.422;2022-09-16T10:02:34;18.00;1.00
5459;DHT22;2752;49.992;8.422;2022-09-16T10:05:04;17.90;1.00
5459;DHT22;2752;49.992;8.422;2022-09-16T10:07:35;17.80;1.00
5459;DHT22;2752;49.992;8.422;2022-09-16T10:10:13;17.80;1.00
5459;DHT22;2752;49.992;8.422;2022-09-16T10:12:40;17.50;1.00
5459;DHT22;2752;49.992;8.422;2022-09-16T10:15:19;17.20;1.00
5459;DHT22;2752;49.992;8.422;2022-09-16T10:17:49;17.20;1.00
5459;DHT22;2752;49.992;8.422;2022-09-16T10:20:24;17.10;1.00
5459;DHT22;2752;49.992;8.422;2022-09-16T10:22:56;16.90;1.00
5459;DHT22;2752;49.992;8.422;2022-09-16T10:25:24;16.70;1.00
5459;DHT22;2752;49.992;8.422;2022-09-16T10:27:54;17.30;1.00
5459;DHT22;2752;49.992;8.422;2022-09-16T10:30:23;17.00;1.00
5459;DHT22;2752;49.992;8.422;2022-09-16T10:32:54;17.20;1.00
5459;DHT22;2752;49.992;8.422;2022-09-16T10:35:23;17.80;1.00
5459;DHT22;2752;49.992;8.422;2022-09-16T10:37:54;17.50;1.00
5459;DHT22;2752;49.992;8.422;2022-09-16T10:40:22;17.80;1.00
5459;DHT22;2752;49.992;8.422;2022-09-16T10:42:50;18.00;1.00
5459;DHT22;2752;49.992;8.422;2022-09-16T10:45:22;17.80;1.00
5459;DHT22;2752;49.992;8.422;2022-09-16T10:47:54;17.60;1.00
5459;DHT22;2752;49.992;8.422;2022-09-16T10:50:21;17.80;1.00
5459;DHT22;2752;49.992;8.422;2022-09-16T10:52:48;18.00;1.00
5459;DHT22;2752;49.992;8.422;2022-09-16T10:55:21;18.00;1.00
5459;DHT22;2752;49.992;8.422;2022-09-16T10:57:48;17.80;1.00
5459;DHT22;2752;49.992;8.422;2022-09-16T11:00:17;17.90;1.00
5459;DHT22;2752;49.992;8.422;2022-09-16T11:06:08;17.90;1.00
5459;DHT22;2752;49.992;8.422;2022-09-16T11:08:48;17.90;1.00
5459;DHT22;2752;49.992;8.422;2022-09-16T11:11:21;17.80;1.00
5459;DHT22;2752;49.992;8.422;2022-09-16T11:13:56;17.80;1.00
5459;DHT22;2752;49.992;8.422;2022-09-16T11:16:36;17.80;1.00
5459;DHT22;2752;49.992;8.422;2022-09-16T11:19:11;18.00;1.00
5459;DHT22;2752;49.992;8.422;2022-09-16T11:21:57;17.70;1.00
5459;DHT22;2752;49.992;8.422;2022-09-16T11:27:36;17.80;1.00
5459;DHT22;2752;49.992;8.422;2022-09-16T11:30:09;17.90;1.00
5459;DHT22;2752;49.992;8.422;2022-09-16T11:32:54;17.90;1.00
5459;DHT22;2752;49.992;8.422;2022-09-16T11:35:31;17.90;1.00
5459;DHT22;2752;49.992;8.422;2022-09-16T11:38:09;17.70;1.00
5459;DHT22;2752;49.992;8.422;2022-09-16T11:40:45;17.90;1.00
5459;DHT22;2752;49.992;8.422;2022-09-16T11:43:31;17.90;1.00
5459;DHT22;2752;49.992;8.422;2022-09-16T11:46:06;17.90;1.00
5459;DHT22;2752;49.992;8.422;2022-09-16T11:48:40;17.60;1.00
5459;DHT22;2752;49.992;8.422;2022-09-16T11:51:25;18.10;1.00
5459;DHT22;2752;49.992;8.422;2022-09-16T11:54:06;17.60;1.00
5459;DHT22;2752;49.992;8.422;2022-09-16T11:56:38;17.70;1.00
5459;DHT22;2752;49.992;8.422;2022-09-16T11:59:12;17.90;1.00
5459;DHT22;2752;49.992;8.422;2022-09-16T12:01:42;18.00;1.00
5459;DHT22;2752;49.992;8.422;2022-09-16T12:04:12;17.40;1.00
5459;DHT22;2752;49.992;8.422;2022-09-16T12:06:48;17.20;1.00
5459;DHT22;2752;49.992;8.422;2022-09-16T12:09:25;17.20;1.00
5459;DHT22;2752;49.992;8.422;2022-09-16T12:11:57;17.00;1.00
5459;DHT22;2752;49.992;8.422;2022-09-16T12:14:30;17.00;1.00
5459;DHT22;2752;49.992;8.422;2022-09-16T12:17:02;17.40;1.00
5459;DHT22;2752;49.992;8.422;2022-09-16T12:19:34;17.60;1.00
5459;DHT22;2752;49.992;8.422;2022-09-16T12:22:05;18.20;1.00
5459;DHT22;2752;49.992;8.422;2022-09-16T12:24:40;17.20;1.00
5459;DHT22;2752;49.992;8.422;2022-09-16T12:27:14;17.30;1.00
5459;DHT22;2752;49.992;8.422;2022-09-16T12:29:50;17.50;1.00
5459;DHT22;2752;49.992;8.422;2022-09-16T12:32:21;17.60;1.00
5459;DHT22;2752;49.992;8.422;2022-09-16T12:34:55;18.10;1.00
5459;DHT22;2752;49.992;8.422;2022-09-16T12:37:31;18.40;1.00
5459;DHT22;2752;49.992;8.422;2022-09-16T12:40:01;18.30;1.00
5459;DHT22;2752;49.992;8.422;2022-09-16T12:42:50;18.30;1.00
5459;DHT22;2752;49.992;8.422;2022-09-16T12:45:43;18.40;1.00
5459;DHT22;2752;49.992;8.422;2022-09-16T12:48:30;18.40;1.00
5459;DHT22;2752;49.992;8.422;2022-09-16T12:51:35;18.20;1.00
5459;DHT22;2752;49.992;8.422;2022-09-16T12:57:18;18.50;1.00
5459;DHT22;2752;49.992;8.422;2022-09-16T13:00:03;18.60;1.00
5459;DHT22;2752;49.992;8.422;2022-09-16T13:02:35;18.20;1.00
5459;DHT22;2752;49.992;8.422;2022-09-16T13:05:11;18.50;1.00
5459;DHT22;2752;49.992;8.422;2022-09-16T13:07:39;19.00;1.00
5459;DHT22;2752;49.992;8.422;2022-09-16T13:10:07;19.20;1.00
5459;DHT22;2752;49.992;8.422;2022-09-16T13:12:41;19.50;1.00
5459;DHT22;2752;49.992;8.422;2022-09-16T13:15:23;18.80;1.00
5459;DHT22;2752;49.992;8.422;2022-09-16T13:17:50;18.90;1.00
5459;DHT22;2752;49.992;8.422;2022-09-16T13:20:20;18.90;1.00
5459;DHT22;2752;49.992;8.422;2022-09-16T13:22:57;18.60;1.00
5459;DHT22;2752;49.992;8.422;2022-09-16T13:25:27;19.00;1.00
5459;DHT22;2752;49.992;8.422;2022-09-16T13:27:58;18.80;1.00
5459;DHT22;2752;49.992;8.422;2022-09-16T13:30:32;18.70;1.00
5459;DHT22;2752;49.992;8.422;2022-09-16T13:33:02;18.60;1.00
5459;DHT22;2752;49.992;8.422;2022-09-16T13:35:38;18.50;1.00
5459;DHT22;2752;49.992;8.422;2022-09-16T13:38:22;18.60;1.00
5459;DHT22;2752;49.992;8.422;2022-09-16T13:40:54;18.50;1.00
5459;DHT22;2752;49.992;8.422;2022-09-16T13:43:34;17.70;1.00
5459;DHT22;2752;49.992;8.422;2022-09-16T13:46:06;17.70;1.00
5459;DHT22;2752;49.992;8.422;2022-09-16T13:48:42;17.60;1.00
5459;DHT22;2752;49.992;8.422;2022-09-16T13:51:15;18.00;1.00
5459;DHT22;2752;49.992;8.422;2022-09-16T13:53:45;17.60;1.00
5459;DHT22;2752;49.992;8.422;2022-09-16T13:56:38;17.80;1.00
5459;DHT22;2752;49.992;8.422;2022-09-16T13:59:20;18.60;1.00
5459;DHT22;2752;49.992;8.422;2022-09-16T14:01:56;18.80;1.00
5459;DHT22;2752;49.992;8.422;2022-09-16T14:04:39;18.60;1.00
5459;DHT22;2752;49.992;8.422;2022-09-16T14:07:21;18.80;1.00
5459;DHT22;2752;49.992;8.422;2022-09-16T14:09:58;18.70;1.00
5459;DHT22;2752;49.992;8.422;2022-09-16T14:12:32;18.50;1.00
5459;DHT22;2752;49.992;8.422;2022-09-16T14:15:05;18.70;1.00
5459;DHT22;2752;49.992;8.422;2022-09-16T14:17:37;18.50;1.00
5459;DHT22;2752;49.992;8.422;2022-09-16T14:20:11;17.80;1.00
5459;DHT22;2752;49.992;8.422;2022-09-16T14:22:41;18.00;1.00
5459;DHT22;2752;49.992;8.422;2022-09-16T14:25:25;17.60;1.00
5459;DHT22;2752;49.992;8.422;2022-09-16T14:28:06;17.60;1.00
5459;DHT22;2752;49.992;8.422;2022-09-16T14:30:34;17.50;1.00
5459;DHT22;2752;49.992;8.422;2022-09-16T14:33:01;17.40;1.00
5459;DHT22;2752;49.992;8.422;2022-09-16T14:35:28;17.10;1.00
5459;DHT22;2752;49.992;8.422;2022-09-16T14:37:59;17.00;1.00
5459;DHT22;2752;49.992;8.422;2022-09-16T14:40:28;16.70;1.00
5459;DHT22;2752;49.992;8.422;2022-09-16T14:42:57;16.80;1.00
5459;DHT22;2752;49.992;8.422;2022-09-16T14:47:54;16.90;1.00
5459;DHT22;2752;49.992;8.422;2022-09-16T14:50:25;16.60;1.00
5459;DHT22;2752;49.992;8.422;2022-09-16T14:52:53;16.80;1.00
5459;DHT22;2752;49.992;8.422;2022-09-16T14:55:23;16.50;1.00
5459;DHT22;2752;49.992;8.422;2022-09-16T14:57:50;16.70;1.00
5459;DHT22;2752;49.992;8.422;2022-09-16T15:00:17;16.50;1.00
5459;DHT22;2752;49.992;8.422;2022-09-16T15:02:47;16.60;1.00
5459;DHT22;2752;49.992;8.422;2022-09-16T15:05:20;16.30;1.00
5459;DHT22;2752;49.992;8.422;2022-09-16T15:07:49;16.50;1.00
5459;DHT22;2752;49.992;8.422;2022-09-16T15:10:20;16.40;1.00
5459;DHT22;2752;49.992;8.422;2022-09-16T15:12:49;16.50;1.00
5459;DHT22;2752;49.992;8.422;2022-09-16T15:15:21;16.40;1.00
5459;DHT22;2752;49.992;8.422;2022-09-16T15:17:52;16.40;1.00
5459;DHT22;2752;49.992;8.422;2022-09-16T15:20:23;16.30;1.00
5459;DHT22;2752;49.992;8.422;2022-09-16T15:22:50;16.30;1.00
5459;DHT22;2752;49.992;8.422;2022-09-16T15:25:19;16.20;1.00
5459;DHT22;2752;49.992;8.422;2022-09-16T15:27:46;16.50;1.00
5459;DHT22;2752;49.992;8.422;2022-09-16T15:30:21;16.10;1.00
5459;DHT22;2752;49.992;8.422;2022-09-16T15:32:48;15.60;1.00
5459;DHT22;2752;49.992;8.422;2022-09-16T15:35:21;15.00;1.00
5459;DHT22;2752;49.992;8.422;2022-09-16T15:37:49;14.30;1.00
5459;DHT22;2752;49.992;8.422;2022-09-16T15:40:31;14.40;1.00
5459;DHT22;2752;49.992;8.422;2022-09-16T15:43:09;14.10;1.00
5459;DHT22;2752;49.992;8.422;2022-09-16T15:45:37;14.20;1.00
5459;DHT22;2752;49.992;8.422;2022-09-16T15:48:05;14.00;1.00
5459;DHT22;2752;49.992;8.422;2022-09-16T15:50:41;13.90;1.00
5459;DHT22;2752;49.992;8.422;2022-09-16T15:53:11;13.60;1.00
5459;DHT22;2752;49.992;8.422;2022-09-16T15:55:41;13.10;10.50
5459;DHT22;2752;49.992;8.422;2022-09-16T16:00:56;12.70;18.00
5459;DHT22;2752;49.992;8.422;2022-09-16T16:03:25;12.90;32.40
5459;DHT22;2752;49.992;8.422;2022-09-16T16:05:53;13.40;36.10
5459;DHT22;2752;49.992;8.422;2022-09-16T16:08:42;13.30;41.70
5459;DHT22;2752;49.992;8.422;2022-09-16T16:11:10;13.30;22.70
5459;DHT22;2752;49.992;8.422;2022-09-16T16:13:38;13.50;17.40
5459;DHT22;2752;49.992;8.422;2022-09-16T16:16:05;13.70;13.00
5459;DHT22;2752;49.992;8.422;2022-09-16T16:18:34;14.00;22.20
5459;DHT22;2752;49.992;8.422;2022-09-16T16:21:05;13.90;7.80
5459;DHT22;2752;49.992;8.422;2022-09-16T16:23:32;14.00;11.00
5459;DHT22;2752;49.992;8.422;2022-09-16T16:26:00;14.20;23.70
5459;DHT22;2752;49.992;8.422;2022-09-16T16:28:27;14.40;7.80
5459;DHT22;2752;49.992;8.422;2022-09-16T16:31:09;14.40;8.40
5459;DHT22;2752;49.992;8.422;2022-09-16T16:33:36;14.60;1.00
5459;DHT22;2752;49.992;8.422;2022-09-16T16:36:04;14.70;4.30
5459;DHT22;2752;49.992;8.422;2022-09-16T16:38:31;14.80;1.00
5459;DHT22;2752;49.992;8.422;2022-09-16T16:40:58;15.00;1.00
5459;DHT22;2752;49.992;8.422;2022-09-16T16:43:24;15.10;1.00
5459;DHT22;2752;49.992;8.422;2022-09-16T16:45:54;15.30;1.00
5459;DHT22;2752;49.992;8.422;2022-09-16T16:48:21;15.30;1.00
5459;DHT22;2752;49.992;8.422;2022-09-16T16:50:54;15.30;1.00
5459;DHT22;2752;49.992;8.422;2022-09-16T16:53:23;15.10;1.00
5459;DHT22;2752;49.992;8.422;2022-09-16T16:55:50;15.10;1.00
5459;DHT22;2752;49.992;8.422;2022-09-16T16:58:16;14.90;1.00
5459;DHT22;2752;49.992;8.422;2022-09-16T17:00:43;14.40;7.10
5459;DHT22;2752;49.992;8.422;2022-09-16T17:03:12;14.10;8.30
5459;DHT22;2752;49.992;8.422;2022-09-16T17:05:39;14.20;1.00
5459;DHT22;2752;49.992;8.422;2022-09-16T17:08:06;14.10;1.00
5459;DHT22;2752;49.992;8.422;2022-09-16T17:10:34;14.00;1.00
5459;DHT22;2752;49.992;8.422;2022-09-16T17:13:01;12.50;1.00